EW8876 Weather Reports


Display with metric or nautical units.
time (UTC)temp
F
wind
direction
speed
MPH
gust
MPH
rain 1hr
in
rain 24hr
in
rain mn
in
humidity
%
barometer
mb
20220117230420 64 212 0.0 0.0 0.00 0.00 0.00 28 1017.1
20220117225919 64 229 0.0 0.0 0.00 0.00 0.00 28 1017.1
20220117225418 65 193 0.0 0.0 0.00 0.00 0.00 29 1017.4
20220117224917 65 201 0.0 0.0 0.00 0.00 0.00 27 1017.4
20220117224416 65 198 0.0 0.0 0.00 0.00 0.00 28 1017.5
20220117223914 66 157 0.0 0.0 0.00 0.00 0.00 27 1017.3
20220117223413 66 94 0.0 0.0 0.00 0.00 0.00 27 1017.3
20220117222912 65 211 0.0 0.0 0.00 0.00 0.00 27 1017.3
20220117222411 66 190 3.0 5.0 0.00 0.00 0.00 27 1017.5
20220117221909 66 2 0.0 0.0 0.00 0.00 0.00 26 1017.7
20220117221409 66 343 0.0 0.0 0.00 0.00 0.00 26 1017.5
20220117220908 66 315 1.0 2.0 0.00 0.00 0.00 25 1017.5
20220117220407 66 96 0.0 2.0 0.00 0.00 0.00 26 1017.7
20220117215906 66 185 0.0 0.0 0.00 0.00 0.00 25 1017.8
20220117215405 66 67 0.0 0.0 0.00 0.00 0.00 26 1017.8
20220117214904 66 204 0.0 0.0 0.00 0.00 0.00 25 1017.6
20220117214403 66 359 0.0 0.0 0.00 0.00 0.00 26 1017.5
20220117213904 66 148 3.0 3.0 0.00 0.00 0.00 25 1017.7
20220117213403 66 56 0.0 0.0 0.00 0.00 0.00 24 1018.0
20220117212904 66 167 0.0 2.0 0.00 0.00 0.00 24 1017.7
20220117212402 66 199 0.0 0.0 0.00 0.00 0.00 25 1017.8
20220117211901 65 175 0.0 0.0 0.00 0.00 0.00 24 1017.9
20220117211400 65 119 0.0 0.0 0.00 0.00 0.00 24 1017.9
20220117210859 65 96 1.0 3.0 0.00 0.00 0.00 25 1018.0
20220117210358 65 183 0.0 0.0 0.00 0.00 0.00 25 1017.8
20220117205858 65 215 0.0 0.0 0.00 0.00 0.00 25 1018.0
20220117205358 66 197 0.0 0.0 0.00 0.00 0.00 25 1018.0
20220117204856 65 36 0.0 0.0 0.00 0.00 0.00 26 1017.9
20220117204354 65 108 2.0 2.0 0.00 0.00 0.00 25 1017.9
20220117203853 65 95 0.0 2.0 0.00 0.00 0.00 25 1018.0
20220117203352 65 137 2.0 3.0 0.00 0.00 0.00 24 1018.1
20220117202851 64 133 0.0 0.0 0.00 0.00 0.00 26 1018.1
20220117202350 64 123 0.0 0.0 0.00 0.00 0.00 25 1018.1
20220117201848 64 99 0.0 0.0 0.00 0.00 0.00 24 1018.2
20220117201347 65 186 1.0 2.0 0.00 0.00 0.00 24 1018.3
20220117200847 64 105 1.0 3.0 0.00 0.00 0.00 24 1018.3
20220117200345 64 182 0.0 2.0 0.00 0.00 0.00 26 1018.5
20220117195845 65 81 3.0 3.0 0.00 0.00 0.00 24 1018.6
20220117195343 65 179 0.0 0.0 0.00 0.00 0.00 26 1018.8
20220117194843 64 247 1.0 2.0 0.00 0.00 0.00 26 1018.5
20220117194344 64 83 2.0 3.0 0.00 0.00 0.00 26 1018.7
20220117193843 64 116 0.0 0.0 0.00 0.00 0.00 26 1018.6
20220117193342 63 88 0.0 0.0 0.00 0.00 0.00 26 1018.8
20220117192841 63 107 0.0 0.0 0.00 0.00 0.00 24 1019.3
20220117192340 64 181 0.0 2.0 0.00 0.00 0.00 24 1020.0
20220117191840 64 336 0.0 0.0 0.00 0.00 0.00 24 1019.8
20220117191339 63 183 0.0 0.0 0.00 0.00 0.00 26 1020.0
20220117190838 64 97 0.0 2.0 0.00 0.00 0.00 26 1019.8
20220117190338 64 151 0.0 0.0 0.00 0.00 0.00 27 1019.7
20220117185837 63 129 0.0 0.0 0.00 0.00 0.00 28 1019.4
20220117185337 62 73 3.0 5.0 0.00 0.00 0.00 28 1019.8
20220117184836 62 264 0.0 0.0 0.00 0.00 0.00 27 1019.9
20220117184335 62 77 0.0 2.0 0.00 0.00 0.00 30 1019.8
20220117183834 62 217 0.0 0.0 0.00 0.00 0.00 29 1020.1
20220117183333 61 79 0.0 2.0 0.00 0.00 0.00 31 1020.3
20220117182831 61 107 5.0 9.0 0.00 0.00 0.00 30 1020.3
20220117182330 61 108 0.0 2.0 0.00 0.00 0.00 31 1020.5
20220117181830 61 94 2.0 3.0 0.00 0.00 0.00 32 1020.7
20220117181329 60 187 0.0 0.0 0.00 0.00 0.00 34 1020.6
20220117180828 60 96 3.0 5.0 0.00 0.00 0.00 32 1020.9
20220117180327 62 174 1.0 2.0 0.00 0.00 0.00 31 1020.6
20220117175827 60 220 0.0 0.0 0.00 0.00 0.00 32 1021.1
20220117175326 60 64 3.0 3.0 0.00 0.00 0.00 32 1021.3
20220117174826 59 61 1.0 2.0 0.00 0.00 0.00 34 1021.3
20220117174325 59 143 1.0 2.0 0.00 0.00 0.00 35 1021.5
20220117173824 60 41 3.0 3.0 0.00 0.00 0.00 34 1021.2
20220117173322 58 74 2.0 3.0 0.00 0.00 0.00 36 1021.6
20220117172821 59 175 0.0 0.0 0.00 0.00 0.00 33 1021.6
20220117172320 59 138 1.0 2.0 0.00 0.00 0.00 34 1021.7
20220117171818 59 30 1.0 2.0 0.00 0.00 0.00 35 1021.8
20220117171318 57 204 0.0 0.0 0.00 0.00 0.00 37 1021.7
20220117170817 57 61 3.0 3.0 0.00 0.00 0.00 39 1021.8
20220117170316 57 75 1.0 3.0 0.00 0.00 0.00 40 1022.0
20220117165815 57 53 2.0 3.0 0.00 0.00 0.00 38 1022.0
20220117165314 56 182 0.0 0.0 0.00 0.00 0.00 37 1022.0
20220117164813 55 128 0.0 0.0 0.00 0.00 0.00 38 1022.0
20220117164311 57 75 1.0 3.0 0.00 0.00 0.00 37 1021.9
20220117163811 56 99 0.0 2.0 0.00 0.00 0.00 38 1021.9
20220117163312 55 99 0.0 0.0 0.00 0.00 0.00 41 1021.8
20220117162810 54 62 0.0 2.0 0.00 0.00 0.00 40 1021.9
20220117162309 53 67 2.0 3.0 0.00 0.00 0.00 43 1021.6
20220117161809 53 21 2.0 3.0 0.00 0.00 0.00 44 1021.7
20220117161308 51 97 1.0 2.0 0.00 0.00 0.00 45 1021.7
20220117160807 50 54 3.0 3.0 0.00 0.00 0.00 46 1021.8
20220117160306 51 65 4.0 5.0 0.00 0.00 0.00 45 1021.6
20220117155805 50 123 3.0 5.0 0.00 0.00 0.00 46 1021.6
20220117155306 49 136 0.0 2.0 0.00 0.00 0.00 45 1021.5
20220117154804 49 66 3.0 5.0 0.00 0.00 0.00 46 1021.4
20220117154303 50 81 2.0 3.0 0.00 0.00 0.00 47 1021.6
20220117153802 49 200 0.0 0.0 0.00 0.00 0.00 47 1021.4
20220117153302 49 121 2.0 3.0 0.00 0.00 0.00 47 1021.5
20220117152801 48 189 0.0 0.0 0.00 0.00 0.00 50 1021.4
20220117152300 48 62 0.0 0.0 0.00 0.00 0.00 49 1021.4
20220117151759 47 16 2.0 3.0 0.00 0.00 0.00 51 1021.2
20220117151258 45 172 0.0 0.0 0.00 0.00 0.00 53 1021.3
20220117150757 44 74 3.0 3.0 0.00 0.00 0.00 55 1021.4
20220117150256 46 53 1.0 2.0 0.00 0.00 0.00 52 1021.2
20220117145755 45 94 0.0 0.0 0.00 0.00 0.00 53 1021.2
20220117145254 45 148 0.0 0.0 0.00 0.00 0.00 53 1021.3
20220117144755 44 91 0.0 0.0 0.00 0.00 0.00 55 1021.2
20220117144254 44 106 0.0 0.0 0.00 0.00 0.00 55 1021.1
20220117143752 42 196 0.0 0.0 0.00 0.00 0.00 57 1021.1
20220117143251 39 174 0.0 0.0 0.00 0.00 0.00 63 1021.0
20220117142751 37 172 0.0 0.0 0.00 0.00 0.00 67 1020.9
20220117142250 36 163 0.0 0.0 0.00 0.00 0.00 68 1020.7
20220117141750 35 187 0.0 0.0 0.00 0.00 0.00 70 1020.7
20220117141249 34 185 0.0 0.0 0.00 0.00 0.00 74 1020.6
20220117140747 33 190 0.0 0.0 0.00 0.00 0.00 78 1020.9
20220117140247 32 190 0.0 0.0 0.00 0.00 0.00 78 1020.6
20220117135745 32 190 0.0 0.0 0.00 0.00 0.00 79 1020.6
20220117135244 32 190 0.0 0.0 0.00 0.00 0.00 78 1020.7
20220117134743 31 190 0.0 0.0 0.00 0.00 0.00 78 1020.7
20220117134241 31 189 0.0 0.0 0.00 0.00 0.00 79 1020.5
20220117133740 31 189 0.0 0.0 0.00 0.00 0.00 78 1020.4
20220117133240 31 189 0.0 0.0 0.00 0.00 0.00 79 1020.4
20220117132738 31 189 0.0 0.0 0.00 0.00 0.00 79 1020.4
20220117132237 31 160 0.0 0.0 0.00 0.00 0.00 79 1020.1
20220117131738 31 201 0.0 0.0 0.00 0.00 0.00 78 1020.1
20220117131237 32 201 0.0 0.0 0.00 0.00 0.00 77 1020.1
20220117130735 32 201 0.0 0.0 0.00 0.00 0.00 77 1020.0
20220117130235 32 201 0.0 0.0 0.00 0.00 0.00 75 1019.8
20220117125734 33 201 0.0 0.0 0.00 0.00 0.00 74 1020.0
20220117125233 33 201 0.0 0.0 0.00 0.00 0.00 74 1019.8
20220117124733 33 201 0.0 0.0 0.00 0.00 0.00 74 1019.8
20220117124233 33 202 0.0 0.0 0.00 0.00 0.00 74 1019.7
20220117123732 33 191 0.0 0.0 0.00 0.00 0.00 74 1019.7
20220117123232 33 170 0.0 0.0 0.00 0.00 0.00 74 1019.8
20220117122731 34 166 0.0 0.0 0.00 0.00 0.00 71 1019.5
20220117122230 34 197 0.0 0.0 0.00 0.00 0.00 70 1019.4
20220117121729 34 222 0.0 0.0 0.00 0.00 0.00 71 1019.4
20220117121228 34 194 0.0 0.0 0.00 0.00 0.00 71 1019.5
20220117120727 34 188 0.0 0.0 0.00 0.00 0.00 71 1019.3
20220117120227 34 209 0.0 0.0 0.00 0.00 0.00 71 1019.3
20220117115726 33 208 0.0 0.0 0.00 0.00 0.00 73 1019.3
20220117115226 33 199 0.0 0.0 0.00 0.00 0.00 75 1019.2
20220117114724 33 207 0.0 0.0 0.00 0.00 0.00 75 1019.3
20220117114223 33 207 0.0 0.0 0.00 0.00 0.00 74 1019.2
20220117113722 33 207 0.0 0.0 0.00 0.00 0.00 74 1019.0
20220117113222 33 207 0.0 0.0 0.00 0.00 0.00 72 1018.9
20220117112721 34 207 0.0 0.0 0.00 0.00 0.00 71 1019.3
20220117112220 35 205 0.0 0.0 0.00 0.00 0.00 69 1019.1
20220117111720 35 195 0.0 0.0 0.00 0.00 0.00 68 1019.0
20220117111218 35 208 0.0 0.0 0.00 0.00 0.00 68 1018.9
20220117110717 35 197 0.0 0.0 0.00 0.00 0.00 68 1019.2
20220117110216 35 202 0.0 0.0 0.00 0.00 0.00 68 1019.3
20220117105715 35 190 0.0 0.0 0.00 0.00 0.00 67 1019.3
20220117105215 35 214 0.0 0.0 0.00 0.00 0.00 68 1019.1
20220117104715 35 208 0.0 0.0 0.00 0.00 0.00 68 1019.2
20220117104214 35 200 0.0 0.0 0.00 0.00 0.00 69 1019.1
20220117103712 34 189 0.0 0.0 0.00 0.00 0.00 71 1019.3
20220117103211 34 208 0.0 0.0 0.00 0.00 0.00 70 1019.1
20220117102710 35 208 0.0 0.0 0.00 0.00 0.00 69 1019.1
20220117102208 35 207 0.0 0.0 0.00 0.00 0.00 68 1019.2
20220117101709 36 208 0.0 0.0 0.00 0.00 0.00 68 1019.0
20220117101207 35 192 0.0 0.0 0.00 0.00 0.00 68 1019.0
20220117100706 36 209 0.0 0.0 0.00 0.00 0.00 69 1019.0
20220117100205 36 193 0.0 0.0 0.00 0.00 0.00 68 1019.2
20220117095703 36 153 0.0 0.0 0.00 0.00 0.00 67 1019.2
20220117095202 36 181 0.0 0.0 0.00 0.00 0.00 67 1019.1
20220117094703 36 189 0.0 0.0 0.00 0.00 0.00 66 1019.2
20220117094201 36 189 0.0 0.0 0.00 0.00 0.00 67 1019.1
20220117093701 36 163 0.0 0.0 0.00 0.00 0.00 67 1019.2
20220117093201 35 177 0.0 0.0 0.00 0.00 0.00 68 1019.3
20220117092701 36 196 0.0 0.0 0.00 0.00 0.00 70 1018.8
20220117092200 35 195 0.0 0.0 0.00 0.00 0.00 70 1019.2
20220117091659 35 196 0.0 0.0 0.00 0.00 0.00 70 1019.1
20220117091158 35 193 0.0 0.0 0.00 0.00 0.00 71 1019.1
20220117090659 35 206 0.0 0.0 0.00 0.00 0.00 69 1019.0
20220117090157 36 206 0.0 0.0 0.00 0.00 0.00 69 1018.8
20220117085656 37 206 0.0 0.0 0.00 0.00 0.00 68 1018.8
20220117085156 37 206 0.0 0.0 0.00 0.00 0.00 67 1018.7
20220117084655 37 201 0.0 0.0 0.00 0.00 0.00 66 1018.9
20220117084155 37 200 0.0 0.0 0.00 0.00 0.00 64 1018.9
20220117083653 37 198 0.0 0.0 0.00 0.00 0.00 65 1019.0
20220117083152 37 183 0.0 0.0 0.00 0.00 0.00 66 1018.8
20220117082651 36 207 0.0 0.0 0.00 0.00 0.00 69 1019.0
20220117082150 36 205 0.0 0.0 0.00 0.00 0.00 71 1018.8
20220117081649 35 207 0.0 0.0 0.00 0.00 0.00 73 1019.0
20220117081148 36 190 0.0 0.0 0.00 0.00 0.00 72 1018.7
20220117080647 36 190 0.0 0.0 0.00 0.00 0.00 71 1018.7
20220117080146 36 190 0.0 0.0 0.00 0.00 0.00 70 1018.5
20220117075645 36 190 0.0 0.0 0.00 0.00 0.00 70 1018.4
20220117075145 36 190 0.0 0.0 0.00 0.00 0.00 69 1018.4
20220117074644 36 177 0.0 0.0 0.00 0.00 0.00 70 1018.4
20220117074143 37 179 0.0 0.0 0.00 0.00 0.00 70 1018.4
20220117073643 37 179 0.0 0.0 0.00 0.00 0.00 68 1018.3
20220117073142 37 177 0.0 0.0 0.00 0.00 0.00 67 1018.2
20220117072642 38 181 0.0 0.0 0.00 0.00 0.00 66 1018.0
20220117072143 38 179 0.0 0.0 0.00 0.00 0.00 66 1018.0
20220117071642 38 147 0.0 0.0 0.00 0.00 0.00 65 1017.9
20220117071141 38 193 0.0 0.0 0.00 0.00 0.00 64 1017.9
20220117070639 38 192 0.0 0.0 0.00 0.00 0.00 65 1017.8
20220117070139 37 178 0.0 0.0 0.00 0.00 0.00 68 1017.6
20220117065639 38 178 0.0 0.0 0.00 0.00 0.00 68 1017.7
20220117065138 38 151 0.0 0.0 0.00 0.00 0.00 68 1017.7
20220117064638 38 212 0.0 0.0 0.00 0.00 0.00 66 1017.7
20220117064137 38 212 0.0 0.0 0.00 0.00 0.00 66 1017.6
20220117063636 38 212 0.0 0.0 0.00 0.00 0.00 66 1017.6
20220117063135 38 212 0.0 0.0 0.00 0.00 0.00 66 1017.8
20220117062635 38 212 0.0 0.0 0.00 0.00 0.00 68 1017.7
20220117062133 38 212 0.0 0.0 0.00 0.00 0.00 67 1017.8
20220117061634 38 212 0.0 0.0 0.00 0.00 0.00 67 1017.5
20220117061133 37 212 0.0 0.0 0.00 0.00 0.00 67 1017.9
20220117060631 37 212 0.0 0.0 0.00 0.00 0.00 67 1017.6
20220117060130 38 212 0.0 0.0 0.00 0.00 0.00 66 1017.6
20220117055629 38 212 0.0 0.0 0.00 0.00 0.00 65 1017.6
20220117055129 38 212 0.0 0.0 0.00 0.00 0.00 65 1017.7
20220117054628 38 211 0.0 0.0 0.00 0.00 0.00 64 1017.7
20220117054127 38 211 0.0 0.0 0.00 0.00 0.00 64 1017.6
20220117053626 38 211 0.0 0.0 0.00 0.00 0.00 64 1017.7
20220117053125 38 211 0.0 0.0 0.00 0.00 0.00 64 1017.7
20220117052624 39 211 0.0 0.0 0.00 0.00 0.00 62 1017.8
20220117052123 39 211 0.0 0.0 0.00 0.00 0.00 61 1017.7
20220117051623 39 211 0.0 0.0 0.00 0.00 0.00 61 1017.7
20220117051122 39 211 0.0 0.0 0.00 0.00 0.00 61 1017.7
20220117050622 40 211 0.0 0.0 0.00 0.00 0.00 58 1017.6
20220117050121 40 211 0.0 0.0 0.00 0.00 0.00 57 1017.9
20220117045620 39 211 0.0 0.0 0.00 0.00 0.00 59 1017.7
20220117045120 40 211 0.0 0.0 0.00 0.00 0.00 58 1017.7
20220117044619 40 211 0.0 0.0 0.00 0.00 0.00 57 1017.7
20220117044118 41 211 0.0 0.0 0.00 0.00 0.00 56 1017.6
20220117043617 41 211 0.0 0.0 0.00 0.00 0.00 57 1017.5
20220117043117 41 211 0.0 0.0 0.00 0.00 0.00 56 1017.6
20220117042616 41 211 0.0 0.0 0.00 0.00 0.00 55 1017.7
20220117042115 41 211 0.0 0.0 0.00 0.00 0.00 53 1017.5
20220117041614 42 211 0.0 0.0 0.00 0.00 0.00 53 1017.4
20220117041113 41 211 0.0 0.0 0.00 0.00 0.00 54 1017.3
20220117040611 41 211 0.0 0.0 0.00 0.00 0.00 54 1017.5
20220117040112 41 211 0.0 0.0 0.00 0.00 0.00 54 1017.6
20220117035610 41 211 0.0 0.0 0.00 0.00 0.00 55 1017.4
20220117035110 42 208 0.0 0.0 0.00 0.00 0.00 54 1017.5
20220117034610 42 209 0.0 0.0 0.00 0.00 0.00 55 1017.6
20220117034109 42 205 0.0 0.0 0.00 0.00 0.00 55 1017.5
20220117033607 42 204 0.0 0.0 0.00 0.00 0.00 54 1017.1
20220117033106 42 204 0.0 0.0 0.00 0.00 0.00 53 1017.4
20220117032604 42 205 0.0 0.0 0.00 0.00 0.00 54 1017.4
20220117032105 42 201 0.0 0.0 0.00 0.00 0.00 55 1017.4
20220117031603 42 201 0.0 0.0 0.00 0.00 0.00 53 1017.4
20220117031101 42 201 0.0 0.0 0.00 0.00 0.00 53 1017.4
20220117030600 43 201 0.0 0.0 0.00 0.00 0.00 56 1017.1
20220117030059 43 201 0.0 0.0 0.00 0.00 0.00 54 1017.1
20220117025559 43 201 0.0 0.0 0.00 0.00 0.00 50 1017.1
20220117025058 43 201 0.0 0.0 0.00 0.00 0.00 52 1017.5
20220117024557 43 201 0.0 0.0 0.00 0.00 0.00 53 1017.5
20220117024056 43 201 0.0 0.0 0.00 0.00 0.00 53 1017.4
20220117023556 43 201 0.0 0.0 0.00 0.00 0.00 51 1017.5
20220117023054 43 201 0.0 0.0 0.00 0.00 0.00 53 1017.7
20220117022553 44 201 0.0 0.0 0.00 0.00 0.00 53 1017.3
20220117022051 44 201 0.0 0.0 0.00 0.00 0.00 53 1017.5
20220117021550 44 201 0.0 0.0 0.00 0.00 0.00 52 1017.6
20220117021048 44 201 0.0 0.0 0.00 0.00 0.00 52 1017.4
20220117020548 45 201 0.0 0.0 0.00 0.00 0.00 50 1017.4
20220117020047 46 200 0.0 0.0 0.00 0.00 0.00 50 1017.0
20220117015547 45 188 0.0 0.0 0.00 0.00 0.00 47 1017.1
20220117015046 45 189 0.0 0.0 0.00 0.00 0.00 51 1017.1
20220117014544 45 189 0.0 0.0 0.00 0.00 0.00 50 1017.0
20220117014043 46 189 0.0 0.0 0.00 0.00 0.00 51 1017.1
20220117013542 46 189 0.0 0.0 0.00 0.00 0.00 48 1016.9
20220117013041 46 189 0.0 0.0 0.00 0.00 0.00 50 1017.1
20220117012540 46 189 0.0 0.0 0.00 0.00 0.00 49 1016.9
20220117012036 46 189 0.0 0.0 0.00 0.00 0.00 52 1016.7
20220117011536 47 189 0.0 0.0 0.00 0.00 0.00 49 1016.5
20220117011035 47 189 0.0 0.0 0.00 0.00 0.00 47 1016.7
20220117010534 47 189 0.0 0.0 0.00 0.00 0.00 48 1016.6
20220117010034 47 189 0.0 0.0 0.00 0.00 0.00 47 1016.5
20220117005533 48 188 0.0 0.0 0.00 0.00 0.00 48 1016.5
20220117005032 48 188 0.0 0.0 0.00 0.00 0.00 47 1016.4
20220117004531 49 188 0.0 0.0 0.00 0.00 0.00 46 1016.4
20220117004030 49 188 0.0 0.0 0.00 0.00 0.00 44 1016.3
20220117003530 50 189 0.0 0.0 0.00 0.00 0.00 43 1016.3
20220117003028 49 188 0.0 0.0 0.00 0.00 0.00 42 1016.1
20220117002527 50 188 0.0 0.0 0.00 0.00 0.00 45 1016.2
20220117002025 50 188 0.0 0.0 0.00 0.00 0.00 43 1016.2
20220117001524 51 188 0.0 0.0 0.00 0.00 0.00 46 1015.9
20220117001023 51 188 0.0 0.0 0.00 0.00 0.00 42 1015.9
20220117000523 51 188 0.0 0.0 0.00 0.00 0.00 42 1015.9
20220117000021 52 188 0.0 0.0 0.00 0.00 0.00 44 1015.8
20220116235520 53 188 0.0 0.0 0.00 0.00 0.00 43 1016.2
20220116235019 53 188 0.0 0.0 0.00 0.00 0.00 41 1016.3
20220116234517 55 188 0.0 0.0 0.00 0.00 0.00 40 1016.3
20220116234016 55 187 0.0 0.0 0.00 0.00 0.00 36 1016.2
20220116233515 56 189 0.0 0.0 0.00 0.00 0.00 37 1016.3
20220116233013 56 189 0.0 0.0 0.00 0.00 0.00 33 1016.4
20220116232512 57 189 0.0 0.0 0.00 0.00 0.00 32 1016.2
20220116232012 57 187 0.0 0.0 0.00 0.00 0.00 33 1016.4
20220116231511 57 187 0.0 0.0 0.00 0.00 0.00 34 1016.3
20220116231010 58 199 0.0 0.0 0.00 0.00 0.00 31 1016.2